Time;durP1;ratioP1;P1;durP2;ratioP2;P2;SDS_P1;SDS_P2;PMS_P1;PMS_P2;Temp;Humidity;BMP_temperature;BMP_pressure;BME280_temperature;BME280_humidity;BME280_pressure;Samples;Min_cycle;Max_cycle;Signal;HPM_P1;HPM_P2
2021/01/04 00:01:43;;;;;;;106.2;83.8;;;;;;;1.02;86.03125;98479.01;;;;
2021/01/04 00:11:42;;;;;;;96.1;74.1;;;;;;;0.78;85.96094;98459.09;;;;
2021/01/04 00:21:39;;;;;;;95.1;68.7;;;;;;;0.6;85.3418;98457.55;;;;
2021/01/04 00:31:37;;;;;;;79.4;62.2;;;;;;;0.42;86.04297;98452.53;;;;
2021/01/04 00:41:35;;;;;;;90.4;64;;;;;;;0.37;87.00977;98460.44;;;;
2021/01/04 00:51:33;;;;;;;73.8;61.8;;;;;;;0.24;86.62012;98468.73;;;;
2021/01/04 01:01:30;;;;;;;83.3;61.3;;;;;;;0.02;87.58789;98460.73;;;;
2021/01/04 01:11:28;;;;;;;85.3;69.1;;;;;;;-0.17;87.69043;98465.47;;;;
2021/01/04 01:21:26;;;;;;;78.5;63.7;;;;;;;-0.37;87.43945;98474.92;;;;
2021/01/04 01:31:33;;;;;;;79.5;61.3;;;;;;;-0.59;87.16699;98483.56;;;;
2021/01/04 01:41:36;;;;;;;101.6;76.2;;;;;;;-0.72;88.44336;98494.44;;;;
2021/01/04 01:51:19;;;;;;;91.6;63.2;;;;;;;-0.85;88.56738;98480.7;;;;
2021/01/04 02:01:17;;;;;;;90.3;62.5;;;;;;;-0.92;88.38965;98474.75;;;;
2021/01/04 02:11:14;;;;;;;96.2;67.2;;;;;;;-1.03;88.59766;98468.47;;;;
2021/01/04 02:21:46;;;;;;;92.5;65.6;;;;;;;-1.04;88.8125;98464.2;;;;
2021/01/04 02:31:10;;;;;;;85.9;64.7;;;;;;;-1.16;88.64648;98469.55;;;;
2021/01/04 02:41:07;;;;;;;75.4;56.8;;;;;;;-1.21;89.38086;98477.37;;;;
2021/01/04 02:51:10;;;;;;;78.6;62.3;;;;;;;-1.25;89.87402;98489.45;;;;
2021/01/04 03:01:09;;;;;;;67.8;54.1;;;;;;;-1.23;89.09082;98471.52;;;;
2021/01/04 03:20:58;;;;;;;74.2;53.9;;;;;;;-1.33;90.06445;98476.61;;;;
2021/01/04 03:30:55;;;;;;;53.4;41.7;;;;;;;-1.28;89.98633;98486.47;;;;
2021/01/04 03:40:53;;;;;;;55.2;43.6;;;;;;;-1.23;89.9541;98499.8;;;;
2021/01/04 03:50:51;;;;;;;55;39.8;;;;;;;-1.07;90.7207;98499.05;;;;
2021/01/04 04:00:48;;;;;;;54.3;42.8;;;;;;;-0.83;90.91406;98494.52;;;;
2021/01/04 04:10:46;;;;;;;53.9;43.1;;;;;;;-0.65;90.0332;98499.59;;;;
2021/01/04 04:20:44;;;;;;;53.7;38.7;;;;;;;-0.53;89.46777;98511.75;;;;
2021/01/04 04:30:41;;;;;;;60.9;43.3;;;;;;;-0.68;89.33789;98516.75;;;;
2021/01/04 04:40:39;;;;;;;57.8;46.9;;;;;;;-0.65;89.57324;98512.82;;;;
2021/01/04 04:50:37;;;;;;;68.6;51.4;;;;;;;-0.61;89.12305;98508.66;;;;
2021/01/04 05:00:38;;;;;;;71.6;56.7;;;;;;;-0.69;88.28516;98501.09;;;;
2021/01/04 05:10:32;;;;;;;64;46.4;;;;;;;-0.67;88.48535;98506.97;;;;
2021/01/04 05:20:46;;;;;;;64.6;46.8;;;;;;;-0.74;87.72559;98487.79;;;;
2021/01/04 05:30:33;;;;;;;57.2;42.7;;;;;;;-0.97;87.64551;98493.19;;;;
2021/01/04 05:40:48;;;;;;;59.9;44.8;;;;;;;-1.03;87.19629;98482.49;;;;
2021/01/04 05:50:27;;;;;;;63.3;49.3;;;;;;;-1.37;89.10645;98488.69;;;;
2021/01/04 06:00:32;;;;;;;66.8;47.1;;;;;;;-1.39;90.04102;98489.96;;;;
2021/01/04 06:10:24;;;;;;;62.5;47.5;;;;;;;-1.39;90.53223;98479.39;;;;
2021/01/04 06:20:15;;;;;;;63.5;48.1;;;;;;;-1.58;90.07715;98468.95;;;;
2021/01/04 06:30:13;;;;;;;72.4;49.7;;;;;;;-1.68;90.25293;98486.43;;;;
2021/01/04 06:40:11;;;;;;;57.7;40.4;;;;;;;-1.69;90.5791;98492.73;;;;
2021/01/04 06:50:08;;;;;;;62.9;43.3;;;;;;;-1.78;89.85059;98524;;;;
2021/01/04 07:00:06;;;;;;;54.3;36.4;;;;;;;-1.47;91.53125;98533.4;;;;
2021/01/04 07:10:03;;;;;;;38.7;31.4;;;;;;;-0.96;93.05273;98545.83;;;;
2021/01/04 07:20:01;;;;;;;57.5;41.3;;;;;;;-0.64;91.84277;98547;;;;
2021/01/04 07:29:59;;;;;;;58.7;44.4;;;;;;;-0.42;90.44336;98544.5;;;;
2021/01/04 07:39:56;;;;;;;85.8;62.6;;;;;;;-0.3;90.08496;98555.01;;;;
2021/01/04 07:49:54;;;;;;;74.8;57.3;;;;;;;0;89.60059;98563.5;;;;
2021/01/04 07:59:58;;;;;;;65.4;58.2;;;;;;;0.21;88.99609;98562.75;;;;
2021/01/04 08:09:50;;;;;;;78.7;54;;;;;;;0.4;88.99121;98565.97;;;;
2021/01/04 08:19:47;;;;;;;58.6;48.7;;;;;;;0.79;89.01855;98569.45;;;;
2021/01/04 08:29:45;;;;;;;61.1;48;;;;;;;1.12;88.42676;98560.58;;;;
2021/01/04 08:39:43;;;;;;;57.1;48.6;;;;;;;1.41;88.03711;98544.22;;;;
2021/01/04 08:49:41;;;;;;;53.8;45;;;;;;;1.83;87.06543;98554.2;;;;
2021/01/04 08:59:39;;;;;;;49.9;39.9;;;;;;;2.03;86.42285;98568.47;;;;
2021/01/04 09:09:37;;;;;;;62.9;46.6;;;;;;;2.01;85.93262;98561.81;;;;
2021/01/04 09:19:35;;;;;;;61.6;42.1;;;;;;;2.08;85.53809;98565.06;;;;
2021/01/04 09:29:33;;;;;;;45.6;38.9;;;;;;;1.9;86.94531;98557.45;;;;
2021/01/04 09:39:31;;;;;;;55.2;41.2;;;;;;;1.92;86.95117;98556.14;;;;
2021/01/04 09:49:29;;;;;;;45.7;39.7;;;;;;;2.18;86.36328;98551.05;;;;
2021/01/04 09:59:27;;;;;;;47.1;40.4;;;;;;;2.19;86.41895;98539.34;;;;
2021/01/04 10:09:25;;;;;;;58;44.6;;;;;;;2.02;87.0918;98537.63;;;;
2021/01/04 10:19:29;;;;;;;51.7;40.2;;;;;;;2.24;86.90625;98542.86;;;;
2021/01/04 10:29:23;;;;;;;72.7;47.5;;;;;;;2.2;87.75684;98551.59;;;;
2021/01/04 10:39:23;;;;;;;56.5;45.7;;;;;;;2.67;87.16895;98536.51;;;;
2021/01/04 10:49:29;;;;;;;48.1;36.8;;;;;;;3.36;85.0293;98533.61;;;;
2021/01/04 10:59:16;;;;;;;51.8;37.3;;;;;;;3.73;83.49512;98528.89;;;;
2021/01/04 11:09:14;;;;;;;45.5;37.1;;;;;;;4.53;79.07324;98505.94;;;;
2021/01/04 11:19:12;;;;;;;40.1;35.8;;;;;;;4.31;78.51074;98486.76;;;;
2021/01/04 11:29:11;;;;;;;49.4;35.2;;;;;;;4.01;79.7666;98483.06;;;;
2021/01/04 11:39:09;;;;;;;52.8;39.9;;;;;;;3.74;81.13574;98489.72;;;;
2021/01/04 11:49:07;;;;;;;44.7;33.6;;;;;;;3.83;81.67578;98488.92;;;;
2021/01/04 11:59:05;;;;;;;51.9;40.6;;;;;;;3.72;81.28711;98470.52;;;;
2021/01/04 12:09:04;;;;;;;40.8;35.2;;;;;;;3.65;81.96094;98481.44;;;;
2021/01/04 12:19:02;;;;;;;50.8;37.9;;;;;;;3.88;81.91895;98480.94;;;;
2021/01/04 12:29:00;;;;;;;46.7;39;;;;;;;4.53;79.75195;98468.58;;;;
2021/01/04 12:38:58;;;;;;;45.6;35;;;;;;;4.51;78.92578;98476.84;;;;
2021/01/04 12:48:57;;;;;;;43.2;37.4;;;;;;;4.29;79.71777;98484.38;;;;
2021/01/04 12:58:55;;;;;;;45.4;36;;;;;;;4.34;79.11719;98476.34;;;;
2021/01/04 13:08:53;;;;;;;52.7;41.6;;;;;;;4.3;79.50879;98471.84;;;;
2021/01/04 13:18:53;;;;;;;52;39.6;;;;;;;4.23;80.01758;98450.78;;;;
2021/01/04 13:28:50;;;;;;;52.8;38.4;;;;;;;4.18;80.27441;98433.97;;;;
2021/01/04 13:38:49;;;;;;;51.7;42.8;;;;;;;3.85;81.52344;98443.35;;;;
2021/01/04 13:48:47;;;;;;;58.3;41.9;;;;;;;3.52;82.22559;98456.13;;;;
2021/01/04 13:58:45;;;;;;;49.3;37.4;;;;;;;3.26;82.86133;98443.03;;;;
2021/01/04 14:08:43;;;;;;;50.3;42.9;;;;;;;2.92;83.69141;98437.33;;;;
2021/01/04 14:18:41;;;;;;;48.2;38.4;;;;;;;2.66;84.20703;98449.76;;;;
2021/01/04 14:28:39;;;;;;;62.9;42.6;;;;;;;2.09;85.6377;98454.2;;;;
2021/01/04 14:38:37;;;;;;;58.7;42.8;;;;;;;1.75;87.05957;98459.81;;;;
2021/01/04 14:48:36;;;;;;;53.2;44;;;;;;;1.58;88.63086;98458.33;;;;
2021/01/04 14:58:33;;;;;;;152.7;100.1;;;;;;;1.5;89.43066;98460.39;;;;
2021/01/04 15:08:31;;;;;;;105.7;71.6;;;;;;;1.3;90.51172;98452.23;;;;
2021/01/04 15:18:29;;;;;;;92.8;67.1;;;;;;;1.12;91.06738;98444.62;;;;
2021/01/04 15:28:27;;;;;;;44.2;39.4;;;;;;;1.03;91.50586;98440.01;;;;
2021/01/04 15:38:25;;;;;;;38.4;34.3;;;;;;;1.08;90.99023;98429.46;;;;
2021/01/04 15:48:23;;;;;;;82.4;59.3;;;;;;;0.95;92.55762;98442.05;;;;
2021/01/04 15:58:21;;;;;;;53.3;38.7;;;;;;;1.16;91.71289;98429.8;;;;
2021/01/04 16:08:21;;;;;;;48.1;39.8;;;;;;;1.19;91.0791;98428.48;;;;
2021/01/04 16:18:17;;;;;;;41.7;32;;;;;;;1.2;90.71973;98435.41;;;;
2021/01/04 16:28:15;;;;;;;44;36.5;;;;;;;1.24;91.02441;98455.09;;;;
2021/01/04 16:38:13;;;;;;;41.4;33.7;;;;;;;1.27;90.99902;98447.44;;;;
2021/01/04 16:48:11;;;;;;;31.1;27.7;;;;;;;1.28;91.60547;98442.93;;;;
2021/01/04 16:58:09;;;;;;;38.2;30.4;;;;;;;1.41;91.74414;98453.14;;;;
2021/01/04 17:08:07;;;;;;;34.4;28;;;;;;;1.42;91.70215;98450.22;;;;
2021/01/04 17:18:05;;;;;;;44.8;32;;;;;;;1.44;91.58496;98439.36;;;;
2021/01/04 17:28:03;;;;;;;34.4;25;;;;;;;1.53;91.28516;98440.48;;;;
2021/01/04 17:38:01;;;;;;;42.3;33.1;;;;;;;1.45;91.66309;98443.63;;;;
2021/01/04 17:47:59;;;;;;;140.3;109;;;;;;;1.53;91.64551;98445.02;;;;
2021/01/04 17:57:57;;;;;;;51.2;36.7;;;;;;;1.67;91.28223;98452.3;;;;
2021/01/04 18:07:55;;;;;;;59.5;43.8;;;;;;;1.84;90.6582;98452.96;;;;
2021/01/04 18:17:53;;;;;;;47.8;37.7;;;;;;;1.92;90.16797;98457.82;;;;
2021/01/04 18:27:51;;;;;;;41.7;33.5;;;;;;;1.93;89.90723;98467.41;;;;
2021/01/04 18:37:49;;;;;;;46.1;35.1;;;;;;;2.01;90.01074;98458.16;;;;
2021/01/04 18:47:47;;;;;;;45.8;35.7;;;;;;;2.11;89.68945;98458.23;;;;
2021/01/04 18:57:45;;;;;;;43.4;35.2;;;;;;;2.13;89.7373;98458.76;;;;
2021/01/04 19:07:43;;;;;;;61.2;46.6;;;;;;;2.15;89.81836;98461.18;;;;
2021/01/04 19:17:41;;;;;;;47;37.3;;;;;;;2.13;90.2002;98445.47;;;;
2021/01/04 19:27:40;;;;;;;49.4;39;;;;;;;2.21;90.22852;98436.22;;;;
2021/01/04 19:37:38;;;;;;;60.4;45;;;;;;;2.24;90.44336;98425.06;;;;
2021/01/04 19:47:36;;;;;;;63.1;40.6;;;;;;;2.43;90.06738;98427.02;;;;
2021/01/04 19:57:34;;;;;;;71.1;54;;;;;;;2.49;90.0791;98410.05;;;;
2021/01/04 20:07:32;;;;;;;59.6;44.3;;;;;;;2.57;89.58691;98407.95;;;;
2021/01/04 20:17:30;;;;;;;62.9;44.5;;;;;;;2.38;90.87012;98412.91;;;;
2021/01/04 20:27:28;;;;;;;51.6;39;;;;;;;2.43;91.04688;98418.27;;;;
2021/01/04 20:37:27;;;;;;;53.5;40.5;;;;;;;2.35;91.79004;98405.45;;;;
2021/01/04 20:47:25;;;;;;;56.1;40.4;;;;;;;2.33;92.41406;98402.23;;;;
2021/01/04 20:57:23;;;;;;;53.7;40.3;;;;;;;2.38;92.44824;98408.4;;;;
2021/01/04 21:07:22;;;;;;;53.5;41;;;;;;;2.38;92.44629;98391.64;;;;
2021/01/04 21:17:23;;;;;;;48.4;37.4;;;;;;;2.5;92.09668;98384.23;;;;
2021/01/04 21:27:18;;;;;;;42.7;36.6;;;;;;;2.45;92.12207;98363.75;;;;
2021/01/04 21:37:16;;;;;;;51.7;39.9;;;;;;;2.5;91.46777;98360.29;;;;
2021/01/04 21:47:14;;;;;;;48.6;38.3;;;;;;;2.42;91.74805;98350.17;;;;
2021/01/04 21:57:12;;;;;;;47;33.4;;;;;;;2.43;91.80957;98339.26;;;;
2021/01/04 22:07:11;;;;;;;43.5;35.9;;;;;;;2.33;92.12793;98339.22;;;;
2021/01/04 22:17:09;;;;;;;48.9;32.8;;;;;;;2.39;92.26074;98329.42;;;;
2021/01/04 22:27:07;;;;;;;50.3;34.3;;;;;;;2.4;92.30664;98336.32;;;;
2021/01/04 22:37:05;;;;;;;57.7;40.4;;;;;;;2.48;92.07031;98325.19;;;;
2021/01/04 22:47:03;;;;;;;43.6;34.8;;;;;;;2.53;92.08398;98325.99;;;;
2021/01/04 22:57:01;;;;;;;41.6;36.5;;;;;;;2.43;91.80762;98322.53;;;;
2021/01/04 23:07:00;;;;;;;39.4;28.7;;;;;;;2.45;91.82422;98321.2;;;;
2021/01/04 23:16:58;;;;;;;45.5;34.5;;;;;;;2.35;92.28613;98313.19;;;;
2021/01/04 23:26:56;;;;;;;38.6;26.1;;;;;;;2.44;91.69922;98303.63;;;;
2021/01/04 23:36:54;;;;;;;36.6;26.4;;;;;;;2.52;91.80469;98299.67;;;;
2021/01/04 23:46:52;;;;;;;34.4;26.3;;;;;;;2.57;91.3418;98281.05;;;;
2021/01/04 23:56:52;;;;;;;31;25.4;;;;;;;2.67;90.84473;98270.45;;;;
